createdAt,value
2023-01-13T00:00:20.815Z,100768.78
2023-01-13T00:02:48.220Z,100772.34
2023-01-13T00:05:15.547Z,100774.06
2023-01-13T00:07:43.392Z,100773.97
2023-01-13T00:10:11.205Z,100783.81
2023-01-13T00:12:43.481Z,100781.13
2023-01-13T00:15:11.304Z,100777.59
2023-01-13T00:17:39.148Z,100778.34
2023-01-13T00:20:07.530Z,100775.69
2023-01-13T00:22:35.768Z,100773.91
2023-01-13T00:25:04.443Z,100780.06
2023-01-13T00:27:31.868Z,100784.44
2023-01-13T00:29:59.874Z,100782.63
2023-01-13T00:32:27.665Z,100781.81
2023-01-13T00:34:55.723Z,100777.34
2023-01-13T00:37:23.739Z,100780.91
2023-01-13T00:39:52.355Z,100782.81
2023-01-13T00:42:38.361Z,100772.25
2023-01-13T00:45:06.191Z,100774.97
2023-01-13T00:47:33.443Z,100780.31
2023-01-13T00:50:00.704Z,100781.97
2023-01-13T00:52:27.915Z,100794.28
2023-01-13T00:54:55.156Z,100788.03
2023-01-13T00:57:22.386Z,100800.53
2023-01-13T00:59:49.803Z,100795.28
2023-01-13T01:02:17.185Z,100810.25
2023-01-13T01:04:44.609Z,100819.91
2023-01-13T01:07:11.805Z,100814.66
2023-01-13T01:09:39.528Z,100811.47
2023-01-13T01:12:07.114Z,100803.47
2023-01-13T01:14:34.747Z,100801.72
2023-01-13T01:17:02.079Z,100808.84
2023-01-13T01:19:29.319Z,100798.25
2023-01-13T01:21:56.520Z,100798.28
2023-01-13T01:24:23.772Z,100808.03
2023-01-13T01:26:51.093Z,100801.00
2023-01-13T01:29:18.319Z,100796.34
2023-01-13T01:31:45.603Z,100799.88
2023-01-13T01:34:12.997Z,100785.81
2023-01-13T01:36:41.147Z,100780.53
2023-01-13T01:39:08.453Z,100770.78
2023-01-13T01:41:36.707Z,100764.59
2023-01-13T01:44:42.170Z,100759.34
2023-01-13T01:47:14.216Z,100763.69
2023-01-13T01:49:42.966Z,100755.69
2023-01-13T01:52:26.228Z,100752.22
2023-01-13T01:54:59.644Z,100749.59
2023-01-13T01:57:32.396Z,100746.00
2023-01-13T02:00:01.129Z,100736.09
2023-01-13T02:02:30.566Z,100736.28
2023-01-13T02:04:59.280Z,100739.84
2023-01-13T02:07:30.537Z,100747.88
2023-01-13T02:10:01.595Z,100750.50
2023-01-13T02:12:29.460Z,100755.78
2023-01-13T02:15:01.284Z,100759.25
2023-01-13T02:17:47.938Z,100751.19
2023-01-13T02:20:21.139Z,100745.94
2023-01-13T02:23:30.241Z,100752.00
2023-01-13T02:26:25.323Z,100751.00
2023-01-13T02:29:20.496Z,100748.47
2023-01-13T02:31:51.048Z,100746.84
2023-01-13T02:34:34.561Z,100747.84
2023-01-13T02:37:13.968Z,100743.38
2023-01-13T02:39:59.549Z,100736.16
2023-01-13T02:43:14.850Z,100745.84
2023-01-13T02:46:16.916Z,100748.50
2023-01-13T02:48:48.360Z,100747.78
2023-01-13T02:51:19.784Z,100744.22
2023-01-13T02:53:53.657Z,100742.50
2023-01-13T02:56:23.251Z,100731.84
2023-01-13T02:58:51.257Z,100731.84
2023-01-13T03:01:18.894Z,100734.59
2023-01-13T03:03:47.052Z,100723.97
2023-01-13T03:06:17.148Z,100715.97
2023-01-13T03:09:03.907Z,100724.78
2023-01-13T03:11:43.957Z,100717.59
2023-01-13T03:14:34.046Z,100719.31
2023-01-13T03:17:39.597Z,100721.13
2023-01-13T03:20:16.888Z,100721.16
2023-01-13T03:23:14.313Z,100715.88
2023-01-13T03:25:51.850Z,100714.06
2023-01-13T03:28:25.919Z,100709.50
2023-01-13T03:30:58.913Z,100704.88
2023-01-13T03:33:30.977Z,100713.84
2023-01-13T03:36:03.699Z,100714.03
2023-01-13T03:38:30.902Z,100713.97
2023-01-13T03:41:05.536Z,100715.78
2023-01-13T03:44:01.018Z,100722.09
2023-01-13T03:46:37.374Z,100724.72
2023-01-13T03:49:09.253Z,100729.19
2023-01-13T03:51:40.543Z,100725.63
2023-01-13T03:54:12.619Z,100726.38
2023-01-13T03:56:45.399Z,100730.00
2023-01-13T03:59:19.448Z,100730.88
2023-01-13T04:02:01.677Z,100726.34
2023-01-13T04:04:38.430Z,100721.88
2023-01-13T04:07:23.876Z,100721.81
2023-01-13T04:09:54.517Z,100717.34
2023-01-13T04:13:02.706Z,100714.53
2023-01-13T04:15:31.922Z,100707.03
2023-01-13T04:18:09.958Z,100716.38
2023-01-13T04:20:37.843Z,100713.69
2023-01-13T04:23:05.153Z,100713.69
2023-01-13T04:25:32.602Z,100716.28
2023-01-13T04:27:59.840Z,100711.81
2023-01-13T04:30:27.281Z,100709.09
2023-01-13T04:32:55.037Z,100703.75
2023-01-13T04:35:22.388Z,100711.75
2023-01-13T04:37:49.647Z,100709.88
2023-01-13T04:40:17.366Z,100719.69
2023-01-13T04:42:45.452Z,100717.81
2023-01-13T04:45:13.092Z,100722.22
2023-01-13T04:47:41.995Z,100722.97
2023-01-13T04:50:10.584Z,100722.06
2023-01-13T04:52:38.621Z,100723.69
2023-01-13T04:55:06.761Z,100723.63
2023-01-13T04:57:35.054Z,100716.41
2023-01-13T05:00:02.294Z,100718.16
2023-01-13T05:02:29.586Z,100725.22
2023-01-13T05:04:56.908Z,100714.50
2023-01-13T05:07:24.210Z,100719.78
2023-01-13T05:09:51.439Z,100716.16
2023-01-13T05:12:37.575Z,100723.22
2023-01-13T05:15:24.259Z,100724.09
2023-01-13T05:17:51.590Z,100729.34
2023-01-13T05:20:18.949Z,100736.47
2023-01-13T05:23:05.041Z,100737.16
2023-01-13T05:25:43.456Z,100721.25
2023-01-13T05:28:11.847Z,100730.03
2023-01-13T05:30:42.522Z,100730.97
2023-01-13T05:33:11.584Z,100738.06
2023-01-13T05:35:44.289Z,100734.47
2023-01-13T05:38:12.581Z,100741.56
2023-01-13T05:40:59.763Z,100737.84
2023-01-13T05:43:27.438Z,100734.97
2023-01-13T05:45:58.890Z,100737.53
2023-01-13T05:48:34.965Z,100741.09
2023-01-13T05:51:04.479Z,100749.00
2023-01-13T05:53:32.964Z,100747.09
2023-01-13T05:56:00.769Z,100750.47
2023-01-13T05:58:28.250Z,100749.41
2023-01-13T06:01:07.938Z,100748.44
2023-01-13T06:03:35.910Z,100743.88
2023-01-13T06:06:04.229Z,100740.22
2023-01-13T06:08:32.805Z,100743.63
2023-01-13T06:11:00.254Z,100738.09
2023-01-13T06:13:27.883Z,100735.19
2023-01-13T06:15:59.169Z,100732.66
2023-01-13T06:18:27.119Z,100732.50
2023-01-13T06:20:54.963Z,100733.38
2023-01-13T06:23:22.417Z,100735.97
2023-01-13T06:26:07.048Z,100734.75
2023-01-13T06:28:34.973Z,100741.03
2023-01-13T06:31:07.560Z,100741.03
2023-01-13T06:33:59.065Z,100740.03
2023-01-13T06:36:32.944Z,100739.94
2023-01-13T06:39:02.859Z,100740.84
2023-01-13T06:41:51.090Z,100742.50
2023-01-13T06:44:20.576Z,100751.34
2023-01-13T06:46:48.093Z,100747.72
2023-01-13T06:49:15.415Z,100742.31
2023-01-13T06:51:43.032Z,100748.47
2023-01-13T06:54:10.268Z,100748.41
2023-01-13T06:56:37.512Z,100750.94
2023-01-13T06:59:04.893Z,100750.00
2023-01-13T07:01:32.249Z,100751.69
2023-01-13T07:03:59.611Z,100754.78
2023-01-13T07:06:26.992Z,100752.50
2023-01-13T07:08:54.410Z,100753.22
2023-01-13T07:11:21.628Z,100746.09
2023-01-13T07:14:07.519Z,100750.22
2023-01-13T07:16:34.890Z,100749.41
2023-01-13T07:19:02.249Z,100759.97
2023-01-13T07:21:29.489Z,100758.72
2023-01-13T07:23:56.862Z,100751.66
2023-01-13T07:26:24.129Z,100752.88
2023-01-13T07:28:51.536Z,100755.22
2023-01-13T07:31:21.246Z,100752.75
2023-01-13T07:33:48.946Z,100760.56
2023-01-13T07:36:16.297Z,100757.88
2023-01-13T07:38:44.627Z,100753.81
2023-01-13T07:41:32.695Z,100756.00
2023-01-13T07:44:00.604Z,100749.25
2023-01-13T07:46:27.887Z,100744.84
2023-01-13T07:48:55.137Z,100756.66
2023-01-13T07:51:22.613Z,100759.75
2023-01-13T07:53:50.021Z,100757.13
2023-01-13T07:56:17.505Z,100760.94
2023-01-13T07:58:50.209Z,100763.63
2023-01-13T08:01:18.500Z,100764.53
2023-01-13T08:03:45.946Z,100764.59
2023-01-13T08:06:14.197Z,100763.66
2023-01-13T08:08:41.723Z,100757.41
2023-01-13T08:11:09.195Z,100751.66
2023-01-13T08:13:36.682Z,100755.03
2023-01-13T08:16:07.349Z,100754.28
2023-01-13T08:18:35.837Z,100752.63
2023-01-13T08:21:12.648Z,100753.81
2023-01-13T08:23:41.949Z,100750.69
2023-01-13T08:26:11.822Z,100750.41
2023-01-13T08:28:42.324Z,100753.16
2023-01-13T08:31:16.222Z,100747.31
2023-01-13T08:33:44.522Z,100756.63
2023-01-13T08:36:12.908Z,100758.09
2023-01-13T08:38:41.191Z,100756.66
2023-01-13T08:41:13.028Z,100754.56
2023-01-13T08:43:40.376Z,100749.19
2023-01-13T08:46:07.920Z,100762.88
2023-01-13T08:48:35.508Z,100756.44
2023-01-13T08:51:08.931Z,100762.09
2023-01-13T08:53:36.258Z,100770.91
2023-01-13T08:56:10.958Z,100759.94
2023-01-13T08:58:38.707Z,100768.16
2023-01-13T09:01:07.344Z,100755.19
2023-01-13T09:03:34.794Z,100762.47
2023-01-13T09:06:02.062Z,100768.53
2023-01-13T09:08:29.352Z,100767.69
2023-01-13T09:10:57.684Z,100768.25
2023-01-13T09:13:25.429Z,100763.75
2023-01-13T09:15:56.407Z,100764.34
2023-01-13T09:18:23.982Z,100763.47
2023-01-13T09:20:51.345Z,100773.91
2023-01-13T09:23:18.593Z,100774.66
2023-01-13T09:25:45.927Z,100770.47
2023-01-13T09:28:13.247Z,100773.34
2023-01-13T09:30:40.469Z,100766.75
2023-01-13T09:33:26.412Z,100763.69
2023-01-13T09:35:59.082Z,100751.78
2023-01-13T09:38:26.351Z,100751.75
2023-01-13T09:40:54.663Z,100745.41
2023-01-13T09:43:52.545Z,100744.22
2023-01-13T09:46:43.021Z,100745.31
2023-01-13T09:49:20.847Z,100739.25
2023-01-13T09:52:09.965Z,100735.75
2023-01-13T09:54:42.987Z,100736.72
2023-01-13T09:57:15.387Z,100737.34
2023-01-13T09:59:43.170Z,100729.22
2023-01-13T10:02:37.396Z,100733.81
2023-01-13T10:05:15.480Z,100726.31
2023-01-13T10:07:52.694Z,100722.56
2023-01-13T10:10:42.109Z,100717.16
2023-01-13T10:13:20.188Z,100710.50
2023-01-13T10:16:02.846Z,100700.31
2023-01-13T10:18:51.977Z,100699.31
2023-01-13T10:21:56.829Z,100698.50
2023-01-13T10:24:54.982Z,100702.94
2023-01-13T10:27:32.472Z,100689.84
2023-01-13T10:29:59.957Z,100686.91
2023-01-13T10:32:27.176Z,100681.09
2023-01-13T10:34:57.413Z,100686.09
2023-01-13T10:37:27.655Z,100672.38
2023-01-13T10:39:57.461Z,100675.22
2023-01-13T10:42:25.537Z,100670.91
2023-01-13T10:44:55.300Z,100666.72
2023-01-13T10:47:27.067Z,100667.25
2023-01-13T10:50:02.421Z,100672.13
2023-01-13T10:52:33.365Z,100663.75
2023-01-13T10:55:01.171Z,100658.84
2023-01-13T10:57:28.508Z,100649.91
2023-01-13T10:59:56.437Z,100648.81
2023-01-13T11:02:27.301Z,100644.94
2023-01-13T11:04:54.655Z,100642.50
2023-01-13T11:07:41.530Z,100633.78
2023-01-13T11:10:27.567Z,100632.38
2023-01-13T11:13:13.629Z,100626.41
2023-01-13T11:15:55.298Z,100630.06
2023-01-13T11:18:28.444Z,100621.94
2023-01-13T11:20:58.612Z,100617.84
2023-01-13T11:23:42.053Z,100622.19
2023-01-13T11:26:20.700Z,100618.84
2023-01-13T11:29:10.186Z,100631.78
2023-01-13T11:31:43.297Z,100625.03
2023-01-13T11:34:35.933Z,100626.44
2023-01-13T11:37:10.545Z,100632.78
2023-01-13T11:39:49.759Z,100626.50
2023-01-13T11:42:46.705Z,100618.25
2023-01-13T11:45:25.946Z,100616.09
2023-01-13T11:47:58.337Z,100614.09
2023-01-13T11:50:28.771Z,100614.00
2023-01-13T11:53:09.701Z,100616.09
2023-01-13T11:55:46.093Z,100616.66
2023-01-13T11:58:50.544Z,100607.94
2023-01-13T12:01:34.752Z,100607.91
2023-01-13T12:04:26.407Z,100604.25
2023-01-13T12:07:14.112Z,100607.34
2023-01-13T12:10:00.120Z,100602.09
2023-01-13T12:12:50.993Z,100597.63
2023-01-13T12:15:24.152Z,100594.59
2023-01-13T12:18:12.719Z,100594.00
2023-01-13T12:21:01.683Z,100589.84
2023-01-13T12:23:47.337Z,100588.19
2023-01-13T12:26:16.658Z,100584.38
2023-01-13T12:28:53.626Z,100580.53
2023-01-13T12:31:22.181Z,100575.88
2023-01-13T12:34:04.531Z,100574.94
2023-01-13T12:37:01.440Z,100576.38
2023-01-13T12:39:29.223Z,100572.34
2023-01-13T12:42:29.726Z,100574.53
2023-01-13T12:45:12.116Z,100559.00
2023-01-13T12:47:44.110Z,100565.41
2023-01-13T12:50:26.408Z,100564.81
2023-01-13T12:52:55.573Z,100555.78
2023-01-13T12:55:31.152Z,100550.38
2023-01-13T12:58:10.419Z,100545.72
2023-01-13T13:00:56.746Z,100541.31
2023-01-13T13:03:32.304Z,100544.19
2023-01-13T13:06:02.183Z,100543.19
2023-01-13T13:08:55.823Z,100545.50
2023-01-13T13:11:54.563Z,100538.25
2023-01-13T13:14:37.045Z,100544.03
2023-01-13T13:17:31.718Z,100546.97
2023-01-13T13:20:01.493Z,100540.47
2023-01-13T13:22:28.746Z,100532.84
2023-01-13T13:24:56.210Z,100529.16
2023-01-13T13:27:42.665Z,100527.47
2023-01-13T13:30:28.555Z,100537.75
2023-01-13T13:33:33.280Z,100532.22
2023-01-13T13:36:16.624Z,100536.81
2023-01-13T13:39:11.439Z,100525.66
2023-01-13T13:42:03.710Z,100523.09
2023-01-13T13:44:59.524Z,100521.50
2023-01-13T13:47:37.890Z,100523.25
2023-01-13T13:50:09.037Z,100523.69
2023-01-13T13:53:09.581Z,100522.78
2023-01-13T13:55:36.906Z,100518.94
2023-01-13T13:58:04.540Z,100521.34
2023-01-13T14:00:35.659Z,100510.94
2023-01-13T14:03:02.865Z,100511.91
2023-01-13T14:05:37.359Z,100510.50
2023-01-13T14:08:23.037Z,100503.78
2023-01-13T14:10:50.387Z,100518.19
2023-01-13T14:13:22.820Z,100514.47
2023-01-13T14:15:56.812Z,100519.44
2023-01-13T14:18:25.073Z,100514.59
2023-01-13T14:21:00.756Z,100511.38
2023-01-13T14:23:33.535Z,100508.34
2023-01-13T14:26:09.555Z,100505.31
2023-01-13T14:28:38.678Z,100505.00
2023-01-13T14:31:08.160Z,100516.78
2023-01-13T14:33:38.879Z,100511.94
2023-01-13T14:36:18.692Z,100508.28
2023-01-13T14:38:50.312Z,100505.03
2023-01-13T14:41:22.159Z,100510.97
2023-01-13T14:43:51.048Z,100513.69
2023-01-13T14:46:19.318Z,100521.44
2023-01-13T14:48:48.071Z,100519.81
2023-01-13T14:51:27.817Z,100520.06
2023-01-13T14:53:55.843Z,100505.53
2023-01-13T14:56:49.904Z,100523.97
2023-01-13T14:59:43.635Z,100516.97
2023-01-13T15:02:29.339Z,100521.09
2023-01-13T15:05:00.997Z,100516.09
2023-01-13T15:07:30.958Z,100518.06
2023-01-13T15:09:59.701Z,100510.22
2023-01-13T15:12:39.353Z,100514.41
2023-01-13T15:15:21.067Z,100516.69
2023-01-13T15:17:48.349Z,100534.75
2023-01-13T15:20:21.106Z,100523.44
2023-01-13T15:22:49.438Z,100533.47
2023-01-13T15:25:17.152Z,100531.09
2023-01-13T15:27:46.416Z,100534.53
2023-01-13T15:30:18.641Z,100533.69
2023-01-13T15:32:46.035Z,100526.22
2023-01-13T15:35:15.324Z,100521.06
2023-01-13T15:37:43.899Z,100519.66
2023-01-13T15:40:15.305Z,100519.84
2023-01-13T15:43:01.036Z,100514.81
2023-01-13T15:45:47.620Z,100514.22
2023-01-13T15:48:14.967Z,100526.97
2023-01-13T15:50:42.189Z,100508.31
2023-01-13T15:53:14.379Z,100506.75
2023-01-13T15:55:45.015Z,100513.91
2023-01-13T15:58:13.708Z,100517.53
2023-01-13T16:00:42.349Z,100522.75
2023-01-13T16:03:14.075Z,100522.91
2023-01-13T16:05:42.019Z,100522.06
2023-01-13T16:08:18.675Z,100520.13
2023-01-13T16:10:46.541Z,100527.28
2023-01-13T16:13:14.450Z,100528.09
2023-01-13T16:15:48.639Z,100528.09
2023-01-13T16:18:23.773Z,100527.19
2023-01-13T16:20:55.290Z,100528.13
2023-01-13T16:23:22.984Z,100519.38
2023-01-13T16:25:51.025Z,100515.78
2023-01-13T16:28:26.249Z,100524.78
2023-01-13T16:30:54.123Z,100525.78
2023-01-13T16:33:21.486Z,100528.53
2023-01-13T16:36:10.065Z,100540.19
2023-01-13T16:38:36.873Z,100542.81
2023-01-13T16:41:04.382Z,100538.13
2023-01-13T16:43:32.273Z,100536.69
2023-01-13T16:45:59.663Z,100530.53
2023-01-13T16:48:27.177Z,100545.91
2023-01-13T16:50:54.929Z,100526.47
2023-01-13T16:53:22.204Z,100536.41
2023-01-13T16:55:49.487Z,100535.47
2023-01-13T16:58:20.016Z,100538.00
2023-01-13T17:00:48.160Z,100535.31
2023-01-13T17:03:16.553Z,100543.50
2023-01-13T17:05:49.361Z,100544.34
2023-01-13T17:08:20.475Z,100543.50
2023-01-13T17:10:47.829Z,100533.69
2023-01-13T17:13:16.923Z,100527.53
2023-01-13T17:15:46.033Z,100528.53
2023-01-13T17:18:13.703Z,100517.88
2023-01-13T17:20:41.322Z,100521.91
2023-01-13T17:23:08.631Z,100521.16
2023-01-13T17:25:35.908Z,100517.09
2023-01-13T17:28:03.417Z,100524.09
2023-01-13T17:30:30.692Z,100527.75
2023-01-13T17:32:57.907Z,100528.09
2023-01-13T17:35:25.505Z,100528.13
2023-01-13T17:37:54.252Z,100523.47
2023-01-13T17:40:21.715Z,100536.16
2023-01-13T17:42:48.922Z,100530.63
2023-01-13T17:45:16.463Z,100525.56
2023-01-13T17:47:43.643Z,100530.94
2023-01-13T17:50:10.907Z,100531.34
2023-01-13T17:52:38.582Z,100529.47
2023-01-13T17:55:06.259Z,100514.63
2023-01-13T17:57:35.197Z,100521.38
2023-01-13T18:02:54.555Z,100524.88
2023-01-13T18:05:21.883Z,100526.00
2023-01-13T18:07:49.168Z,100538.97
2023-01-13T18:10:16.831Z,100526.78
2023-01-13T18:12:44.072Z,100531.38
2023-01-13T18:15:11.467Z,100535.28
2023-01-13T18:17:38.784Z,100540.31
2023-01-13T18:20:25.373Z,100539.41
2023-01-13T18:23:10.957Z,100535.97
2023-01-13T18:25:58.345Z,100532.38
2023-01-13T18:28:25.705Z,100535.94
2023-01-13T18:30:52.998Z,100525.63
2023-01-13T18:33:20.250Z,100522.41
2023-01-13T18:35:48.108Z,100536.06
2023-01-13T18:38:21.254Z,100540.88
2023-01-13T18:40:49.091Z,100547.38
2023-01-13T18:43:16.311Z,100547.50
2023-01-13T18:45:43.621Z,100555.78
2023-01-13T18:48:11.861Z,100567.66
2023-01-13T18:50:39.073Z,100572.75
2023-01-13T18:53:06.298Z,100580.50
2023-01-13T18:55:33.792Z,100587.59
2023-01-13T18:58:01.353Z,100585.09
2023-01-13T19:00:29.408Z,100589.28
2023-01-13T19:05:35.359Z,100587.13
2023-01-13T19:08:03.448Z,100584.31
2023-01-13T19:10:32.648Z,100594.06
2023-01-13T19:13:01.592Z,100595.81
2023-01-13T19:15:30.404Z,100587.81
2023-01-13T19:17:57.942Z,100588.38
2023-01-13T19:20:26.139Z,100596.97
2023-01-13T19:22:56.114Z,100599.94
2023-01-13T19:25:23.401Z,100586.81
2023-01-13T19:27:50.793Z,100592.66
2023-01-13T19:30:19.064Z,100588.75
2023-01-13T19:32:46.342Z,100595.09
2023-01-13T19:35:17.407Z,100591.38
2023-01-13T19:37:44.838Z,100582.69
2023-01-13T19:40:15.791Z,100576.22
2023-01-13T19:43:02.482Z,100571.53
2023-01-13T19:45:32.137Z,100580.28
2023-01-13T19:48:01.989Z,100582.28
2023-01-13T19:50:29.641Z,100582.78
2023-01-13T19:52:57.012Z,100585.31
2023-01-13T19:55:24.343Z,100585.38
2023-01-13T19:57:51.614Z,100578.16
2023-01-13T20:00:20.863Z,100584.00
2023-01-13T20:02:49.879Z,100585.31
2023-01-13T20:05:21.820Z,100584.59
2023-01-13T20:07:50.755Z,100587.00
2023-01-13T20:10:20.193Z,100592.09
2023-01-13T20:12:48.099Z,100592.09
2023-01-13T20:15:15.483Z,100591.00
2023-01-13T20:17:42.700Z,100591.38
2023-01-13T20:20:12.090Z,100579.53
2023-01-13T20:22:40.095Z,100572.78
2023-01-13T20:25:08.757Z,100570.50
2023-01-13T20:27:37.730Z,100562.63
2023-01-13T20:30:06.642Z,100563.44
2023-01-13T20:32:33.875Z,100563.13
2023-01-13T20:35:01.160Z,100571.75
2023-01-13T20:37:28.438Z,100562.81
2023-01-13T20:39:58.128Z,100566.25
2023-01-13T20:42:44.220Z,100571.19
2023-01-13T20:45:17.165Z,100569.56
2023-01-13T20:47:45.763Z,100572.91
2023-01-13T20:50:13.924Z,100575.13
2023-01-13T20:52:41.225Z,100589.81
2023-01-13T20:55:09.478Z,100585.22
2023-01-13T20:57:36.883Z,100589.53
2023-01-13T21:00:05.901Z,100593.72
2023-01-13T21:02:33.158Z,100594.69
2023-01-13T21:05:00.377Z,100600.22
2023-01-13T21:07:28.423Z,100609.91
2023-01-13T21:09:57.362Z,100598.72
2023-01-13T21:12:43.362Z,100600.22
2023-01-13T21:15:19.719Z,100609.22
2023-01-13T21:18:08.498Z,100606.13
2023-01-13T21:20:37.188Z,100607.03
2023-01-13T21:23:05.169Z,100607.59
2023-01-13T21:25:35.381Z,100596.00
2023-01-13T21:28:06.293Z,100604.28
2023-01-13T21:30:34.133Z,100601.19
2023-01-13T21:33:02.569Z,100606.56
2023-01-13T21:35:29.875Z,100614.16
2023-01-13T21:37:57.597Z,100616.78
2023-01-13T21:40:25.009Z,100617.50
2023-01-13T21:43:10.972Z,100626.19
2023-01-13T21:45:57.914Z,100627.03
2023-01-13T21:48:25.246Z,100630.44
2023-01-13T21:50:52.538Z,100630.91
2023-01-13T21:53:19.830Z,100627.41
2023-01-13T21:55:52.368Z,100633.00
2023-01-13T21:58:19.652Z,100641.72
2023-01-13T22:00:49.037Z,100649.16
2023-01-13T22:03:18.754Z,100648.75
2023-01-13T22:05:47.187Z,100650.03
2023-01-13T22:08:15.268Z,100651.00
2023-01-13T22:10:58.685Z,100635.09
2023-01-13T22:13:45.892Z,100633.59
2023-01-13T22:16:15.161Z,100634.06
2023-01-13T22:18:42.503Z,100634.66
2023-01-13T22:21:10.980Z,100640.94
2023-01-13T22:23:38.233Z,100639.41
2023-01-13T22:26:07.578Z,100645.97
2023-01-13T22:28:40.890Z,100649.66
2023-01-13T22:31:11.129Z,100654.22
2023-01-13T22:33:38.647Z,100656.03
2023-01-13T22:36:06.627Z,100659.28
2023-01-13T22:38:35.122Z,100664.03
2023-01-13T22:41:04.728Z,100672.31
2023-01-13T22:43:32.404Z,100671.53
2023-01-13T22:46:07.483Z,100674.34
2023-01-13T22:48:35.686Z,100675.22
2023-01-13T22:51:11.019Z,100667.03
2023-01-13T22:53:39.023Z,100680.31
2023-01-13T22:56:07.303Z,100675.25
2023-01-13T22:58:34.627Z,100674.56
2023-01-13T23:01:18.104Z,100672.81
2023-01-13T23:03:47.853Z,100667.50
2023-01-13T23:06:15.778Z,100681.91
2023-01-13T23:08:43.143Z,100673.38
2023-01-13T23:11:13.525Z,100679.03
2023-01-13T23:13:43.489Z,100677.41
2023-01-13T23:16:13.673Z,100682.88
2023-01-13T23:18:48.742Z,100682.28
2023-01-13T23:21:22.208Z,100681.41
2023-01-13T23:23:50.311Z,100679.63
2023-01-13T23:26:18.009Z,100680.91
2023-01-13T23:28:45.448Z,100675.78
2023-01-13T23:31:15.454Z,100666.66
2023-01-13T23:33:43.966Z,100659.72
2023-01-13T23:36:20.744Z,100657.94
2023-01-13T23:38:48.035Z,100651.34
2023-01-13T23:41:18.058Z,100646.81
2023-01-13T23:43:52.166Z,100650.44
2023-01-13T23:46:20.672Z,100653.50
2023-01-13T23:48:49.587Z,100651.25
2023-01-13T23:51:17.191Z,100649.09
2023-01-13T23:53:47.043Z,100637.97
2023-01-13T23:56:18.725Z,100639.66
2023-01-13T23:58:46.693Z,100633.94
